Aérodrome :
LOGIN :

S'inscrire | Disclaimer

   EN    FR    IT 

 










Légende :    VFR   VFR Marginal   IFR   IFR Intensif   IFR Très Intensif
Visi : 
Plafond : 
>= 8 km
>= 3000ft
5 à 8 km
1000 à 3000 ft
1500m à 5 km
500 à 1000 ft
800 à 1500m
200 à 500 ft
< 800m
< 200 ft
Symboles :   Orages  Brouillard  Fortes neiges  Fortes précipitations  Vent > 20 kt
SIGMETs :   Divers  Orages  Givrage  Turbulence  Onde Orograph.  Cendres Volcan.







- Altitude de l'aérodrome : 392 ft
- Code IATA : CDG
- Voir les cartes d'approche


LFPG - Paris-Aeroport Charles De Gaulle

DERNIER METAR :
  • 221830Z 17009KT 9999 -RA BKN040 BKN043 15/08 Q1017 NOSIG

METARs EXPIRÉS :
  • 221800Z 19009KT 9999 BKN043 BKN046 16/08 Q1017 NOSIG
  • 221730Z 20017KT 160V230 9999 FEW043 BKN046 16/08 Q1017 NOSIG
  • 221700Z 16008KT 9999 BKN046 16/09 Q1018 NOSIG
  • 221630Z 15007KT 360V170 9999 -RA NSC 16/09 Q1018 NOSIG
  • 221600Z 16007KT CAVOK 16/09 Q1019 NOSIG

TAF TAF LFPG
Valide du 22 à 18h jusqu'au 24 à 00h UTC


221700Z 2218/2324 16005KT CAVOK TX20/2313Z TN10/2324Z
BECMG 2221/2223 22012KT
BECMG 2223/2301 23015G25KT BKN012
TEMPO 2303/2309 BKN007
PROB30
TEMPO 2303/2306 2500 -RADZ
BECMG 2310/2312 BKN020
TEMPO 2313/2314 25020G40KT 1500 +RA BKN010 BKN015TCU
PROB40
TEMPO 2314/2317 31020G40KT BKN012
BECMG 2321/2323 34010KT CAVOK
ATIS : +33 1 48 62 10 92
Pas de NOTAMs connus pour ce terrain.
1 SIGMET publié pour la FIR Paris (LFFF) :
 
Turbulence forte
LFFF SIGMET 2 VALID 221600/222000 LFPW
LFFF PARIS FIR/UIR SEV TURB FCST WI N4815 W00015 - N4915 W00015 - N4915 E00000 - N4815 E00000 - N4815 W00015 SFC/FL060 MOV E 15KT WKN=



MET'MAP, la Météo Aéronautique d'un coup d'oeil ! - Copyright ORBIFLY Décembre 2007 - Disclaimer

ORBIFLY MET'MAP TEAM :

Programmation & Développement : Alexandra Zaïnal
Conception & Développement : Baudouin d'Aumeries
Co-Programmation & Développement : Marc-Olivier Méhu
Soutien technique & logistique : Manuel Goepfert

Contact : metmap@orbifly.com




SOURCES & CREDITS :

   NOAA